createdAt,value
2024-04-09T00:01:24.844Z,16.90
2024-04-09T00:03:54.853Z,16.80
2024-04-09T00:06:22.209Z,16.70
2024-04-09T00:08:54.361Z,16.60
2024-04-09T00:11:22.779Z,16.60
2024-04-09T00:13:53.198Z,16.80
2024-04-09T00:16:26.819Z,16.80
2024-04-09T00:19:00.201Z,16.90
2024-04-09T00:21:30.448Z,17.20
2024-04-09T00:24:02.100Z,17.50
2024-04-09T00:26:32.783Z,17.70
2024-04-09T00:29:02.659Z,17.70
2024-04-09T00:31:33.112Z,17.70
2024-04-09T00:34:03.505Z,17.90
2024-04-09T00:36:31.238Z,17.90
2024-04-09T00:39:01.722Z,18.10
2024-04-09T00:41:29.130Z,18.30
2024-04-09T00:43:58.988Z,18.50
2024-04-09T00:46:26.223Z,18.50
2024-04-09T00:48:58.844Z,18.40
2024-04-09T00:51:28.304Z,18.20
2024-04-09T00:53:58.991Z,18.00
2024-04-09T00:56:26.940Z,17.90
2024-04-09T00:58:56.809Z,17.90
2024-04-09T01:01:28.014Z,17.90
2024-04-09T01:04:01.443Z,17.90
2024-04-09T01:06:28.833Z,17.80
2024-04-09T01:09:00.164Z,17.90
2024-04-09T01:11:27.495Z,17.80
2024-04-09T01:13:57.262Z,17.70
2024-04-09T01:16:24.436Z,17.70
2024-04-09T01:18:54.253Z,17.60
2024-04-09T01:21:24.276Z,17.60
2024-04-09T01:23:56.916Z,17.50
2024-04-09T01:26:24.399Z,17.50
2024-04-09T01:28:55.327Z,17.40
2024-04-09T01:31:24.259Z,17.40
2024-04-09T01:33:54.815Z,17.40
2024-04-09T01:36:22.124Z,17.40
2024-04-09T01:38:52.183Z,17.40
2024-04-09T01:41:22.051Z,17.40
2024-04-09T01:43:53.599Z,17.50
2024-04-09T01:46:20.872Z,17.70
2024-04-09T01:48:50.968Z,17.90
2024-04-09T01:51:18.618Z,18.10
2024-04-09T01:53:49.523Z,18.20
2024-04-09T01:56:16.892Z,18.30
2024-04-09T01:58:50.180Z,18.40
2024-04-09T02:01:17.590Z,18.40
2024-04-09T02:03:51.131Z,18.40
2024-04-09T02:06:18.804Z,18.40
2024-04-09T02:08:48.636Z,18.40
2024-04-09T02:11:16.559Z,18.30
2024-04-09T02:13:49.796Z,18.20
2024-04-09T02:16:17.439Z,18.20
2024-04-09T02:18:48.220Z,18.10
2024-04-09T02:21:16.772Z,18.00
2024-04-09T02:23:46.751Z,18.00
2024-04-09T02:26:13.940Z,17.90
2024-04-09T02:28:44.654Z,17.90
2024-04-09T02:31:14.710Z,17.80
2024-04-09T02:33:44.982Z,17.80
2024-04-09T02:36:13.160Z,17.70
2024-04-09T02:38:44.537Z,17.70
2024-04-09T02:41:14.408Z,17.60
2024-04-09T02:43:44.284Z,17.60
2024-04-09T02:46:15.065Z,17.60
2024-04-09T02:48:45.193Z,17.70
2024-04-09T02:51:12.513Z,17.90
2024-04-09T02:53:42.351Z,17.90
2024-04-09T02:56:12.293Z,18.00
2024-04-09T02:58:42.352Z,18.00
2024-04-09T03:01:11.379Z,18.10
2024-04-09T03:03:43.945Z,18.00
2024-04-09T03:06:12.636Z,17.90
2024-04-09T03:08:43.067Z,17.80
2024-04-09T03:11:15.220Z,17.70
2024-04-09T03:13:46.814Z,17.60
2024-04-09T03:16:15.132Z,17.50
2024-04-09T03:18:48.997Z,17.50
2024-04-09T03:21:16.482Z,17.40
2024-04-09T03:23:46.775Z,17.40
2024-04-09T03:26:14.429Z,17.40
2024-04-09T03:28:44.764Z,17.30
2024-04-09T03:31:12.017Z,17.20
2024-04-09T03:33:41.978Z,17.20
2024-04-09T03:36:12.113Z,17.20
2024-04-09T03:38:42.053Z,17.10
2024-04-09T03:41:09.313Z,17.00
2024-04-09T03:43:39.142Z,17.00
2024-04-09T03:46:07.829Z,16.90
2024-04-09T03:48:37.966Z,16.90
2024-04-09T03:51:06.817Z,16.80
2024-04-09T03:53:40.378Z,16.70
2024-04-09T03:56:08.092Z,16.60
2024-04-09T03:58:41.447Z,16.50
2024-04-09T04:01:09.879Z,16.50
2024-04-09T04:03:44.203Z,16.40
2024-04-09T04:06:11.666Z,16.30
2024-04-09T04:08:45.409Z,16.20
2024-04-09T04:11:14.220Z,16.20
2024-04-09T04:13:44.820Z,16.20
2024-04-09T04:16:13.684Z,16.10
2024-04-09T04:18:44.855Z,16.10
2024-04-09T04:21:13.958Z,16.00
2024-04-09T04:23:47.322Z,16.00
2024-04-09T04:26:15.821Z,16.00
2024-04-09T04:28:46.676Z,16.00
2024-04-09T04:31:15.077Z,15.90
2024-04-09T04:33:46.179Z,15.90
2024-04-09T04:36:16.542Z,15.80
2024-04-09T04:38:51.069Z,15.70
2024-04-09T04:41:18.477Z,15.70
2024-04-09T04:43:48.296Z,15.70
2024-04-09T04:46:15.567Z,15.70
2024-04-09T04:48:45.881Z,15.70
2024-04-09T04:51:13.300Z,15.70
2024-04-09T04:53:43.121Z,15.70
2024-04-09T04:56:12.958Z,15.60
2024-04-09T04:58:42.845Z,15.60
2024-04-09T05:01:10.099Z,15.50
2024-04-09T05:03:40.014Z,15.40
2024-04-09T05:06:08.362Z,15.40
2024-04-09T05:08:38.275Z,15.40
2024-04-09T05:11:09.630Z,15.40
2024-04-09T05:13:42.102Z,15.30
2024-04-09T05:16:09.347Z,15.30
2024-04-09T05:18:39.364Z,15.20
2024-04-09T05:21:06.737Z,15.10
2024-04-09T05:23:36.592Z,15.10
2024-04-09T05:26:04.114Z,15.00
2024-04-09T05:28:33.926Z,15.00
2024-04-09T05:31:04.327Z,14.90
2024-04-09T05:33:34.174Z,14.80
2024-04-09T05:36:01.573Z,14.70
2024-04-09T05:38:32.081Z,14.60
2024-04-09T05:41:00.054Z,14.70
2024-04-09T05:43:29.812Z,14.60
2024-04-09T05:45:57.045Z,14.60
2024-04-09T05:48:29.792Z,14.60
2024-04-09T05:50:57.413Z,14.60
2024-04-09T05:53:27.186Z,14.50
2024-04-09T05:55:55.771Z,14.40
2024-04-09T05:58:25.603Z,14.40
2024-04-09T06:00:54.651Z,14.30
2024-04-09T06:03:24.875Z,14.30
2024-04-09T06:05:56.811Z,14.20
2024-04-09T06:08:26.756Z,14.20
2024-04-09T06:10:54.633Z,14.10
2024-04-09T06:13:24.454Z,14.00
2024-04-09T06:15:51.815Z,13.90
2024-04-09T06:18:21.788Z,13.90
2024-04-09T06:20:49.111Z,13.80
2024-04-09T06:23:21.559Z,13.80
2024-04-09T06:25:54.930Z,13.70
2024-04-09T06:28:24.991Z,13.70
2024-04-09T06:30:52.323Z,13.60
2024-04-09T06:33:22.726Z,13.60
2024-04-09T06:35:50.193Z,13.50
2024-04-09T06:38:23.551Z,13.50
2024-04-09T06:40:55.043Z,13.60
2024-04-09T06:43:24.887Z,13.60
2024-04-09T06:45:52.104Z,13.60
2024-04-09T06:48:22.066Z,13.60
2024-04-09T06:50:49.287Z,13.50
2024-04-09T06:53:19.031Z,13.50
2024-04-09T06:55:49.310Z,13.50
2024-04-09T06:58:19.133Z,13.40
2024-04-09T07:00:46.403Z,13.40
2024-04-09T07:03:16.978Z,13.30
2024-04-09T07:05:46.974Z,13.20
2024-04-09T07:08:14.167Z,13.20
2024-04-09T07:10:43.969Z,13.00
2024-04-09T07:13:13.770Z,12.70
2024-04-09T07:15:44.861Z,12.40
2024-04-09T07:18:12.175Z,12.20
2024-04-09T07:20:42.047Z,12.10
2024-04-09T07:23:10.974Z,11.80
2024-04-09T07:25:42.038Z,11.60
2024-04-09T07:28:09.282Z,11.40
2024-04-09T07:30:42.583Z,11.30
2024-04-09T07:33:10.069Z,11.20
2024-04-09T07:35:40.472Z,11.10
2024-04-09T07:38:07.845Z,10.90
2024-04-09T07:40:37.630Z,10.80
2024-04-09T07:43:05.636Z,10.80
2024-04-09T07:45:35.454Z,10.80
2024-04-09T07:48:06.658Z,10.90
2024-04-09T07:50:37.005Z,11.00
2024-04-09T07:53:04.553Z,11.10
2024-04-09T07:55:34.318Z,11.30
2024-04-09T07:58:01.510Z,11.40
2024-04-09T08:00:31.465Z,11.40
2024-04-09T08:02:59.589Z,11.50
2024-04-09T08:05:32.382Z,11.60
2024-04-09T08:08:00.095Z,11.80
2024-04-09T08:10:30.298Z,11.90
2024-04-09T08:12:59.040Z,12.00
2024-04-09T08:15:29.558Z,11.90
2024-04-09T08:17:57.787Z,11.80
2024-04-09T08:20:27.973Z,11.80
2024-04-09T08:22:57.845Z,11.60
2024-04-09T08:25:27.610Z,11.50
2024-04-09T08:27:55.904Z,11.60
2024-04-09T08:30:28.314Z,11.70
2024-04-09T08:32:56.489Z,11.70
2024-04-09T08:35:26.455Z,11.50
2024-04-09T08:37:53.715Z,11.40
2024-04-09T08:40:26.412Z,11.20
2024-04-09T08:43:00.127Z,11.20
2024-04-09T08:45:30.287Z,11.20
2024-04-09T08:48:00.798Z,11.10
2024-04-09T08:50:31.105Z,11.00
2024-04-09T08:52:59.222Z,10.90
2024-04-09T08:55:36.382Z,10.80
2024-04-09T08:58:03.901Z,11.00
2024-04-09T09:00:33.883Z,10.90
2024-04-09T09:03:01.367Z,11.00
2024-04-09T09:05:31.221Z,11.10
2024-04-09T09:08:05.733Z,11.30
2024-04-09T09:10:39.760Z,11.40
2024-04-09T09:13:07.041Z,11.30
2024-04-09T09:15:37.361Z,11.40
2024-04-09T09:18:05.953Z,11.40
2024-04-09T09:20:35.868Z,11.30
2024-04-09T09:23:03.155Z,11.20
2024-04-09T09:25:33.262Z,11.30
2024-04-09T09:28:09.208Z,11.20
2024-04-09T09:30:44.252Z,11.20
2024-04-09T09:33:20.060Z,11.20
2024-04-09T09:35:52.511Z,10.90
2024-04-09T09:38:20.517Z,10.80
2024-04-09T09:40:51.923Z,10.80
2024-04-09T09:43:22.989Z,10.80
2024-04-09T09:45:53.479Z,10.60
2024-04-09T09:48:22.936Z,10.70
2024-04-09T09:50:53.181Z,10.80
2024-04-09T09:53:21.463Z,10.70
2024-04-09T09:55:53.917Z,10.70
2024-04-09T09:58:28.104Z,10.60
2024-04-09T10:01:01.098Z,10.50
2024-04-09T10:03:31.201Z,10.50
2024-04-09T10:06:03.055Z,10.50
2024-04-09T10:08:30.408Z,10.40
2024-04-09T10:11:00.682Z,10.40
2024-04-09T10:13:31.372Z,10.20
2024-04-09T10:16:01.849Z,10.10
2024-04-09T10:18:32.911Z,9.90
2024-04-09T10:21:04.393Z,9.80
2024-04-09T10:23:36.528Z,9.80
2024-04-09T10:26:07.782Z,9.80
2024-04-09T10:28:39.114Z,9.70
2024-04-09T10:31:10.948Z,9.70
2024-04-09T10:33:40.523Z,9.70
2024-04-09T10:36:13.997Z,9.60
2024-04-09T10:38:43.974Z,9.50
2024-04-09T10:41:15.130Z,9.30
2024-04-09T10:43:45.161Z,9.20
2024-04-09T10:46:16.300Z,9.20
2024-04-09T10:48:45.403Z,9.10
2024-04-09T10:51:17.583Z,9.20
2024-04-09T10:53:46.258Z,9.20
2024-04-09T10:56:19.429Z,9.20
2024-04-09T10:58:49.175Z,9.10
2024-04-09T11:01:19.193Z,9.00
2024-04-09T11:03:47.858Z,9.00
2024-04-09T11:06:18.056Z,8.90
2024-04-09T11:08:46.882Z,8.90
2024-04-09T11:11:17.316Z,9.00
2024-04-09T11:13:45.011Z,9.00
2024-04-09T11:16:23.440Z,9.10
2024-04-09T11:19:00.464Z,9.10
2024-04-09T11:21:31.814Z,9.10
2024-04-09T11:23:59.253Z,9.10
2024-04-09T11:26:29.863Z,9.20
2024-04-09T11:28:57.076Z,9.20
2024-04-09T11:31:29.527Z,9.30
2024-04-09T11:33:56.868Z,9.30
2024-04-09T11:36:31.521Z,9.20
2024-04-09T11:39:00.237Z,9.30
2024-04-09T11:41:30.367Z,9.30
2024-04-09T11:43:59.711Z,9.30
2024-04-09T11:46:32.243Z,9.30
2024-04-09T11:49:02.339Z,9.40
2024-04-09T11:51:33.722Z,9.50
2024-04-09T11:54:04.109Z,9.60
2024-04-09T11:56:37.071Z,9.60
2024-04-09T11:59:04.254Z,9.70
2024-04-09T12:01:37.351Z,9.70
2024-04-09T12:04:04.771Z,9.90
2024-04-09T12:06:35.183Z,9.90
2024-04-09T12:09:02.604Z,9.90
2024-04-09T12:11:32.556Z,10.00
2024-04-09T12:13:59.835Z,9.90
2024-04-09T12:16:29.634Z,10.00
2024-04-09T12:18:59.713Z,10.00
2024-04-09T12:21:29.873Z,10.00
2024-04-09T12:23:57.186Z,10.00
2024-04-09T12:26:26.973Z,10.00
2024-04-09T12:28:58.859Z,9.90
2024-04-09T12:31:29.462Z,10.00
2024-04-09T12:33:59.672Z,10.10
2024-04-09T12:36:29.559Z,10.10
2024-04-09T12:38:56.992Z,10.20
2024-04-09T12:41:28.862Z,10.40
2024-04-09T12:43:56.250Z,10.40
2024-04-09T12:46:26.639Z,10.50
2024-04-09T12:49:08.242Z,10.50
2024-04-09T12:51:46.994Z,10.60
2024-04-09T12:54:14.818Z,10.50
2024-04-09T12:56:44.645Z,10.40
2024-04-09T12:59:19.527Z,10.40
2024-04-09T13:01:52.606Z,10.40
2024-04-09T13:04:20.347Z,10.40
2024-04-09T13:06:53.021Z,10.40
2024-04-09T13:09:21.222Z,10.50
2024-04-09T13:11:51.107Z,10.60
2024-04-09T13:14:18.369Z,10.50
2024-04-09T13:16:52.170Z,10.50
2024-04-09T13:19:21.216Z,10.40
2024-04-09T13:21:53.891Z,10.40
2024-04-09T13:24:21.061Z,10.40
2024-04-09T13:26:50.883Z,10.30
2024-04-09T13:29:18.116Z,10.30
2024-04-09T13:31:48.097Z,10.30
2024-04-09T13:34:17.877Z,10.30
2024-04-09T13:36:49.463Z,10.30
2024-04-09T13:39:19.252Z,10.40
2024-04-09T13:41:49.803Z,10.40
2024-04-09T13:44:17.280Z,10.50
2024-04-09T13:46:49.490Z,10.50
2024-04-09T13:49:17.409Z,10.50
2024-04-09T13:51:48.009Z,10.60
2024-04-09T13:54:15.804Z,10.60
2024-04-09T13:56:48.303Z,10.60
2024-04-09T13:59:16.146Z,10.60
2024-04-09T14:01:46.082Z,10.60
2024-04-09T14:04:13.382Z,10.70
2024-04-09T14:06:43.800Z,10.70
2024-04-09T14:09:10.998Z,10.70
2024-04-09T14:11:40.942Z,10.70
2024-04-09T14:14:10.827Z,10.70
2024-04-09T14:16:40.748Z,10.70
2024-04-09T14:19:10.915Z,10.80
2024-04-09T14:21:43.069Z,10.90
2024-04-09T14:24:14.457Z,10.90
2024-04-09T14:26:44.481Z,11.00
2024-04-09T14:29:14.674Z,11.00
2024-04-09T14:31:44.586Z,10.90
2024-04-09T14:34:27.255Z,11.00
2024-04-09T14:36:57.053Z,11.00
2024-04-09T14:39:24.237Z,11.00
2024-04-09T14:41:55.741Z,11.10
2024-04-09T14:44:25.594Z,11.10
2024-04-09T14:46:55.572Z,11.20
2024-04-09T14:49:22.936Z,11.20
2024-04-09T14:51:52.938Z,11.20
2024-04-09T14:54:20.439Z,11.20
2024-04-09T14:56:50.615Z,11.10
2024-04-09T14:59:17.932Z,11.10
2024-04-09T15:01:50.426Z,11.10
2024-04-09T15:04:18.344Z,11.10
2024-04-09T15:06:48.177Z,11.10
2024-04-09T15:09:17.922Z,11.10
2024-04-09T15:11:47.738Z,11.20
2024-04-09T15:14:15.003Z,11.10
2024-04-09T15:16:44.975Z,11.20
2024-04-09T15:19:16.001Z,11.20
2024-04-09T15:21:45.851Z,11.20
2024-04-09T15:24:13.085Z,11.30
2024-04-09T15:26:43.201Z,11.30
2024-04-09T15:29:10.458Z,11.30
2024-04-09T15:31:40.327Z,11.30
2024-04-09T15:34:07.828Z,11.30
2024-04-09T15:36:40.343Z,11.30
2024-04-09T15:39:10.420Z,11.30
2024-04-09T15:41:40.264Z,11.20
2024-04-09T15:44:07.556Z,11.20
2024-04-09T15:46:37.371Z,11.10
2024-04-09T15:49:04.695Z,11.00
2024-04-09T15:51:34.795Z,11.00
2024-04-09T15:54:06.297Z,11.00
2024-04-09T15:56:36.354Z,10.90
2024-04-09T15:59:04.464Z,10.90
2024-04-09T16:01:37.216Z,10.80
2024-04-09T16:04:04.668Z,10.70
2024-04-09T16:06:34.500Z,10.70
2024-04-09T16:09:08.948Z,10.70
2024-04-09T16:11:39.003Z,10.70
2024-04-09T16:14:08.139Z,10.70
2024-04-09T16:16:38.018Z,10.70
2024-04-09T16:19:09.300Z,10.70
2024-04-09T16:21:40.663Z,10.70
2024-04-09T16:24:10.538Z,10.60
2024-04-09T16:26:40.331Z,10.70
2024-04-09T16:29:08.168Z,10.60
2024-04-09T16:31:38.510Z,10.60
2024-04-09T16:34:06.506Z,10.60
2024-04-09T16:36:36.973Z,10.50
2024-04-09T16:39:04.399Z,10.50
2024-04-09T16:41:36.863Z,10.50
2024-04-09T16:44:04.697Z,10.40
2024-04-09T16:46:34.551Z,10.40
2024-04-09T16:49:02.416Z,10.40
2024-04-09T16:51:32.245Z,10.40
2024-04-09T16:53:59.503Z,10.30
2024-04-09T16:56:29.340Z,10.30
2024-04-09T16:58:59.291Z,10.40
2024-04-09T17:01:29.138Z,10.40
2024-04-09T17:03:56.536Z,10.50
2024-04-09T17:06:26.493Z,10.50
2024-04-09T17:08:54.156Z,10.60
2024-04-09T17:11:24.288Z,10.60
2024-04-09T17:13:52.358Z,10.50
2024-04-09T17:16:24.878Z,10.60
2024-04-09T17:18:53.014Z,10.60
2024-04-09T17:21:23.015Z,10.50
2024-04-09T17:23:50.260Z,10.50
2024-04-09T17:26:20.137Z,10.50
2024-04-09T17:28:47.524Z,10.50
2024-04-09T17:31:17.686Z,10.50
2024-04-09T17:33:47.568Z,10.40
2024-04-09T17:36:17.970Z,10.40
2024-04-09T17:38:45.320Z,10.30
2024-04-09T17:41:15.227Z,10.30
2024-04-09T17:43:42.448Z,10.40
2024-04-09T17:46:12.275Z,10.40
2024-04-09T17:48:39.512Z,10.40
2024-04-09T17:51:12.522Z,10.30
2024-04-09T17:53:39.917Z,10.20
2024-04-09T17:56:10.086Z,10.10
2024-04-09T17:58:37.361Z,10.10
2024-04-09T18:01:13.321Z,10.00
2024-04-09T18:03:47.330Z,9.90
2024-04-09T18:06:19.826Z,9.80
2024-04-09T18:08:47.504Z,9.70
2024-04-09T18:11:17.461Z,9.60
2024-04-09T18:13:44.687Z,9.60
2024-04-09T18:16:14.519Z,9.60
2024-04-09T18:18:42.968Z,9.50
2024-04-09T18:21:14.951Z,9.40
2024-04-09T18:23:48.176Z,9.40
2024-04-09T18:26:21.201Z,9.30
2024-04-09T18:28:48.791Z,9.20
2024-04-09T18:31:19.018Z,9.20
2024-04-09T18:33:47.464Z,9.10
2024-04-09T18:36:17.592Z,9.10
2024-04-09T18:38:49.790Z,9.00
2024-04-09T18:41:19.676Z,9.00
2024-04-09T18:43:46.943Z,9.00
2024-04-09T18:46:16.791Z,9.00
2024-04-09T18:48:44.025Z,9.00
2024-04-09T18:51:15.263Z,9.00
2024-04-09T18:53:42.661Z,9.00
2024-04-09T18:56:15.602Z,9.00
2024-04-09T18:58:44.963Z,9.00
2024-04-09T19:01:20.175Z,9.00
2024-04-09T19:03:51.370Z,8.90
2024-04-09T19:06:23.822Z,8.90
2024-04-09T19:08:51.302Z,8.90
2024-04-09T19:11:28.290Z,8.90
2024-04-09T19:13:56.719Z,8.90
2024-04-09T19:16:27.235Z,8.90
2024-04-09T19:18:56.836Z,8.90
2024-04-09T19:21:32.204Z,8.80
2024-04-09T19:24:03.590Z,8.90
2024-04-09T19:26:42.063Z,8.80
2024-04-09T19:29:16.266Z,8.80
2024-04-09T19:31:48.176Z,8.80
2024-04-09T19:34:19.285Z,8.80
2024-04-09T19:36:49.404Z,8.80
2024-04-09T19:39:26.463Z,8.70
2024-04-09T19:41:58.917Z,8.70
2024-04-09T19:44:28.534Z,8.70
2024-04-09T19:47:05.022Z,8.60
2024-04-09T19:49:34.530Z,8.60
2024-04-09T19:52:10.276Z,8.50
2024-04-09T19:54:40.556Z,8.50
2024-04-09T19:57:13.238Z,8.50
2024-04-09T19:59:43.091Z,8.40
2024-04-09T20:02:15.795Z,8.30
2024-04-09T20:04:47.248Z,8.30
2024-04-09T20:07:17.149Z,8.20
2024-04-09T20:09:49.392Z,8.20
2024-04-09T20:12:24.571Z,8.10
2024-04-09T20:14:52.640Z,8.10
2024-04-09T20:17:22.514Z,8.00
2024-04-09T20:19:50.452Z,7.90
2024-04-09T20:22:20.287Z,7.90
2024-04-09T20:24:53.383Z,7.90
2024-04-09T20:27:25.904Z,7.80
2024-04-09T20:29:54.923Z,7.80
2024-04-09T20:32:24.836Z,7.80
2024-04-09T20:34:52.817Z,7.70
2024-04-09T20:37:25.634Z,7.70
2024-04-09T20:39:53.009Z,7.60
2024-04-09T20:42:26.604Z,7.70
2024-04-09T20:44:53.773Z,7.60
2024-04-09T20:47:23.708Z,7.60
2024-04-09T20:49:51.040Z,7.60
2024-04-09T20:52:21.745Z,7.50
2024-04-09T20:54:51.416Z,7.50
2024-04-09T20:57:24.811Z,7.50
2024-04-09T20:59:51.969Z,7.50
2024-04-09T21:02:19.258Z,7.50
2024-04-09T21:04:49.379Z,7.50
2024-04-09T21:07:16.988Z,7.50
2024-04-09T21:09:46.989Z,7.40
2024-04-09T21:12:16.793Z,7.40
2024-04-09T21:14:49.320Z,7.40
2024-04-09T21:17:16.587Z,7.40
2024-04-09T21:19:46.488Z,7.40
2024-04-09T21:22:13.742Z,7.40
2024-04-09T21:24:43.551Z,7.40
2024-04-09T21:27:10.755Z,7.30
2024-04-09T21:29:41.563Z,7.30
2024-04-09T21:32:11.439Z,7.30
2024-04-09T21:34:41.784Z,7.30
2024-04-09T21:37:09.087Z,7.20
2024-04-09T21:39:38.900Z,7.20
2024-04-09T21:42:06.531Z,7.20
2024-04-09T21:44:36.532Z,7.20
2024-04-09T21:47:03.885Z,7.20
2024-04-09T21:49:37.239Z,7.20
2024-04-09T21:52:05.030Z,7.20
2024-04-09T21:54:34.793Z,7.20
2024-04-09T21:57:01.966Z,7.20
2024-04-09T21:59:31.808Z,7.20
2024-04-09T22:01:59.100Z,7.20
2024-04-09T22:04:29.077Z,7.10
2024-04-09T22:06:58.977Z,7.20
2024-04-09T22:09:28.849Z,7.20
2024-04-09T22:11:56.355Z,7.20
2024-04-09T22:14:26.314Z,7.20
2024-04-09T22:16:53.781Z,7.30
2024-04-09T22:19:23.712Z,7.30
2024-04-09T22:21:50.939Z,7.30
2024-04-09T22:24:23.329Z,7.30
2024-04-09T22:26:50.515Z,7.40
2024-04-09T22:29:20.304Z,7.40
2024-04-09T22:31:47.667Z,7.50
2024-04-09T22:34:17.581Z,7.50
2024-04-09T22:36:44.955Z,7.50
2024-04-09T22:39:14.760Z,7.60
2024-04-09T22:41:44.712Z,7.50
2024-04-09T22:44:14.546Z,7.50
2024-04-09T22:46:41.755Z,7.40
2024-04-09T22:49:12.331Z,7.40
2024-04-09T22:51:39.655Z,7.40
2024-04-09T22:54:09.468Z,7.30
2024-04-09T22:56:36.772Z,7.30
2024-04-09T22:59:09.588Z,7.20
2024-04-09T23:01:36.762Z,7.30
2024-04-09T23:04:06.610Z,7.20
2024-04-09T23:06:33.796Z,7.20
2024-04-09T23:09:04.822Z,7.10
2024-04-09T23:11:32.348Z,7.10
2024-04-09T23:14:02.255Z,7.00
2024-04-09T23:16:32.102Z,6.90
2024-04-09T23:19:02.293Z,6.90
2024-04-09T23:21:29.609Z,6.90
2024-04-09T23:23:59.675Z,6.80
2024-04-09T23:26:27.063Z,6.80
2024-04-09T23:28:57.371Z,6.70
2024-04-09T23:31:24.937Z,6.70
2024-04-09T23:33:57.484Z,6.70
2024-04-09T23:36:24.770Z,6.60
2024-04-09T23:38:56.383Z,6.60
2024-04-09T23:41:23.583Z,6.60
2024-04-09T23:43:53.802Z,6.60
2024-04-09T23:46:20.972Z,6.60
2024-04-09T23:48:51.140Z,6.60
2024-04-09T23:51:20.973Z,6.50
2024-04-09T23:53:52.061Z,6.50
2024-04-09T23:56:19.708Z,6.50
2024-04-09T23:58:49.985Z,6.40
